createdAt,value
2023-01-18T00:01:20.028Z,-0.25
2023-01-18T00:03:46.521Z,-0.27
2023-01-18T00:06:15.227Z,-0.27
2023-01-18T00:08:42.599Z,-0.29
2023-01-18T00:11:15.630Z,-0.33
2023-01-18T00:13:47.001Z,-0.35
2023-01-18T00:16:19.231Z,-0.35
2023-01-18T00:18:56.289Z,-0.35
2023-01-18T00:21:24.423Z,-0.35
2023-01-18T00:23:51.335Z,-0.33
2023-01-18T00:26:19.688Z,-0.33
2023-01-18T00:28:46.799Z,-0.34
2023-01-18T00:31:20.074Z,-0.35
2023-01-18T00:33:50.257Z,-0.33
2023-01-18T00:36:17.556Z,-0.35
2023-01-18T00:38:44.316Z,-0.35
2023-01-18T00:41:11.104Z,-0.34
2023-01-18T00:43:40.096Z,-0.32
2023-01-18T00:46:15.895Z,-0.33
2023-01-18T00:48:42.823Z,-0.31
2023-01-18T00:51:12.676Z,-0.33
2023-01-18T00:53:46.119Z,-0.33
2023-01-18T00:56:16.088Z,-0.35
2023-01-18T00:58:43.593Z,-0.37
2023-01-18T01:01:11.439Z,-0.39
2023-01-18T01:03:58.731Z,-0.41
2023-01-18T01:06:48.464Z,-0.40
2023-01-18T01:09:26.000Z,-0.41
2023-01-18T01:12:14.124Z,-0.40
2023-01-18T01:15:03.128Z,-0.41
2023-01-18T01:17:52.111Z,-0.40
2023-01-18T01:20:39.395Z,-0.41
2023-01-18T01:23:36.361Z,-0.40
2023-01-18T01:26:13.327Z,-0.40
2023-01-18T01:28:42.990Z,-0.38
2023-01-18T01:31:13.323Z,-0.38
2023-01-18T01:33:40.825Z,-0.34
2023-01-18T01:36:14.567Z,-0.33
2023-01-18T01:38:41.784Z,-0.30
2023-01-18T01:41:19.231Z,-0.28
2023-01-18T01:43:49.809Z,-0.25
2023-01-18T01:46:38.648Z,-0.24
2023-01-18T01:49:10.610Z,-0.22
2023-01-18T01:51:54.075Z,-0.20
2023-01-18T01:54:32.370Z,-0.18
2023-01-18T01:57:06.334Z,-0.17
2023-01-18T01:59:40.730Z,-0.18
2023-01-18T02:02:12.420Z,-0.15
2023-01-18T02:04:44.355Z,-0.14
2023-01-18T02:07:11.814Z,-0.12
2023-01-18T02:09:39.192Z,-0.10
2023-01-18T02:12:08.002Z,-0.07
2023-01-18T02:14:34.591Z,-0.05
2023-01-18T02:17:30.475Z,-0.05
2023-01-18T02:20:24.086Z,-0.02
2023-01-18T02:23:14.075Z,0.01
2023-01-18T02:26:01.695Z,0.02
2023-01-18T02:28:39.367Z,0.02
2023-01-18T02:31:19.094Z,0.02
2023-01-18T02:34:16.731Z,0.03
2023-01-18T02:37:24.973Z,0.03
2023-01-18T02:40:05.462Z,0.03
2023-01-18T02:42:53.184Z,0.05
2023-01-18T02:45:51.287Z,0.05
2023-01-18T02:48:21.316Z,0.07
2023-01-18T02:50:48.221Z,0.06
2023-01-18T02:53:15.687Z,0.02
2023-01-18T02:56:09.988Z,0.04
2023-01-18T02:58:48.372Z,0.04
2023-01-18T03:01:30.275Z,0.04
2023-01-18T03:04:01.828Z,0.03
2023-01-18T03:06:29.999Z,-0.06
2023-01-18T03:08:58.660Z,-0.13
2023-01-18T03:11:35.658Z,-0.21
2023-01-18T03:14:20.251Z,-0.27
2023-01-18T03:17:00.250Z,-0.34
2023-01-18T03:19:56.108Z,-0.40
2023-01-18T03:22:45.759Z,-0.46
2023-01-18T03:25:16.809Z,-0.53
2023-01-18T03:28:05.318Z,-0.61
2023-01-18T03:30:53.315Z,-0.66
2023-01-18T03:33:44.788Z,-0.71
2023-01-18T03:36:35.811Z,-0.73
2023-01-18T03:39:11.415Z,-0.75
2023-01-18T03:41:43.583Z,-0.76
2023-01-18T03:44:25.912Z,-0.77
2023-01-18T03:46:52.694Z,-0.76
2023-01-18T03:49:19.242Z,-0.77
2023-01-18T03:52:06.533Z,-0.76
2023-01-18T03:54:47.399Z,-0.76
2023-01-18T03:57:22.592Z,-0.75
2023-01-18T03:59:49.141Z,-0.75
2023-01-18T04:02:17.821Z,-0.75
2023-01-18T04:04:44.811Z,-0.73
2023-01-18T04:07:11.348Z,-0.74
2023-01-18T04:09:37.875Z,-0.75
2023-01-18T04:12:06.366Z,-0.77
2023-01-18T04:14:35.210Z,-0.77
2023-01-18T04:17:01.698Z,-0.78
2023-01-18T04:19:28.515Z,-0.80
2023-01-18T04:21:55.083Z,-0.83
2023-01-18T04:24:21.626Z,-0.84
2023-01-18T04:26:58.349Z,-0.87
2023-01-18T04:29:28.380Z,-0.87
2023-01-18T04:31:55.071Z,-0.89
2023-01-18T04:34:26.597Z,-0.90
2023-01-18T04:36:53.730Z,-0.91
2023-01-18T04:39:20.866Z,-0.91
2023-01-18T04:41:47.606Z,-0.90
2023-01-18T04:44:14.556Z,-0.89
2023-01-18T04:46:41.318Z,-0.89
2023-01-18T04:49:21.611Z,-0.89
2023-01-18T04:51:48.139Z,-0.89
2023-01-18T04:54:19.312Z,-0.89
2023-01-18T04:56:47.844Z,-0.90
2023-01-18T04:59:16.311Z,-0.90
2023-01-18T05:01:42.938Z,-0.90
2023-01-18T05:04:09.954Z,-0.88
2023-01-18T05:06:38.808Z,-0.87
2023-01-18T05:09:05.425Z,-0.87
2023-01-18T05:11:32.224Z,-0.85
2023-01-18T05:13:58.769Z,-0.85
2023-01-18T05:16:25.342Z,-0.82
2023-01-18T05:19:04.010Z,-0.82
2023-01-18T05:21:33.031Z,-0.81
2023-01-18T05:23:59.620Z,-0.81
2023-01-18T05:26:28.392Z,-0.81
2023-01-18T05:28:58.681Z,-0.81
2023-01-18T05:31:25.781Z,-0.82
2023-01-18T05:33:52.683Z,-0.81
2023-01-18T05:36:21.572Z,-0.81
2023-01-18T05:38:48.152Z,-0.81
2023-01-18T05:41:16.512Z,-0.82
2023-01-18T05:43:43.025Z,-0.81
2023-01-18T05:46:09.600Z,-0.81
2023-01-18T05:48:36.369Z,-0.80
2023-01-18T05:51:11.151Z,-0.82
2023-01-18T05:53:38.182Z,-0.82
2023-01-18T05:56:06.930Z,-0.80
2023-01-18T05:58:34.311Z,-0.81
2023-01-18T06:01:09.497Z,-0.79
2023-01-18T06:03:36.889Z,-0.79
2023-01-18T06:06:03.741Z,-0.80
2023-01-18T06:08:30.448Z,-0.81
2023-01-18T06:10:59.760Z,-0.80
2023-01-18T06:13:28.656Z,-0.81
2023-01-18T06:15:58.596Z,-0.81
2023-01-18T06:18:27.247Z,-0.82
2023-01-18T06:20:55.102Z,-0.82
2023-01-18T06:23:32.325Z,-0.83
2023-01-18T06:25:59.143Z,-0.84
2023-01-18T06:28:26.157Z,-0.84
2023-01-18T06:30:56.709Z,-0.84
2023-01-18T06:33:24.034Z,-0.84
2023-01-18T06:35:52.946Z,-0.84
2023-01-18T06:38:22.511Z,-0.87
2023-01-18T06:40:49.086Z,-0.87
2023-01-18T06:43:16.084Z,-0.87
2023-01-18T06:45:42.785Z,-0.88
2023-01-18T06:48:12.840Z,-0.88
2023-01-18T06:50:39.440Z,-0.88
2023-01-18T06:53:06.286Z,-0.90
2023-01-18T06:55:34.547Z,-0.91
2023-01-18T06:58:02.652Z,-0.91
2023-01-18T07:00:31.530Z,-0.92
2023-01-18T07:02:58.775Z,-0.93
2023-01-18T07:05:25.523Z,-0.93
2023-01-18T07:07:52.213Z,-0.94
2023-01-18T07:10:20.884Z,-0.95
2023-01-18T07:12:48.920Z,-0.96
2023-01-18T07:15:22.978Z,-0.96
2023-01-18T07:17:50.557Z,-0.98
2023-01-18T07:20:17.727Z,-0.97
2023-01-18T07:22:48.720Z,-0.96
2023-01-18T07:25:20.634Z,-0.97
2023-01-18T07:27:49.061Z,-0.97
2023-01-18T07:30:18.478Z,-0.96
2023-01-18T07:32:52.571Z,-0.96
2023-01-18T07:35:22.361Z,-0.97
2023-01-18T07:37:50.527Z,-0.93
2023-01-18T07:40:17.504Z,-0.91
2023-01-18T07:42:44.146Z,-0.90
2023-01-18T07:45:13.921Z,-0.89
2023-01-18T07:47:41.692Z,-0.88
2023-01-18T07:50:09.223Z,-0.88
2023-01-18T07:52:35.914Z,-0.84
2023-01-18T07:55:02.433Z,-0.85
2023-01-18T07:57:35.561Z,-0.81
2023-01-18T08:00:02.195Z,-0.81
2023-01-18T08:02:28.724Z,-0.78
2023-01-18T08:04:55.402Z,-0.78
2023-01-18T08:07:21.893Z,-0.76
2023-01-18T08:09:51.916Z,-0.73
2023-01-18T08:12:20.557Z,-0.67
2023-01-18T08:14:47.092Z,-0.64
2023-01-18T08:17:13.566Z,-0.61
2023-01-18T08:19:42.127Z,-0.59
2023-01-18T08:22:08.672Z,-0.56
2023-01-18T08:24:35.321Z,-0.56
2023-01-18T08:27:02.387Z,-0.55
2023-01-18T08:29:28.885Z,-0.53
2023-01-18T08:32:00.297Z,-0.50
2023-01-18T08:34:27.020Z,-0.52
2023-01-18T08:36:53.599Z,-0.53
2023-01-18T08:39:20.695Z,-0.56
2023-01-18T08:41:53.788Z,-0.57
2023-01-18T08:44:20.473Z,-0.50
2023-01-18T08:46:47.049Z,-0.49
2023-01-18T08:49:14.091Z,-0.56
2023-01-18T08:51:40.565Z,-0.50
2023-01-18T08:54:07.379Z,-0.48
2023-01-18T08:56:36.274Z,-0.47
2023-01-18T08:59:07.008Z,-0.50
2023-01-18T09:01:33.616Z,-0.48
2023-01-18T09:04:00.321Z,-0.47
2023-01-18T09:06:32.329Z,-0.48
2023-01-18T09:08:59.574Z,-0.47
2023-01-18T09:11:26.469Z,-0.43
2023-01-18T09:14:00.695Z,-0.47
2023-01-18T09:19:25.553Z,-0.49
2023-01-18T09:21:56.938Z,-0.50
2023-01-18T09:24:23.576Z,-0.45
2023-01-18T09:26:54.182Z,-0.40
2023-01-18T09:29:20.892Z,-0.40
2023-01-18T09:31:49.259Z,-0.43
2023-01-18T09:34:20.346Z,-0.37
2023-01-18T09:36:50.235Z,-0.31
2023-01-18T09:39:22.730Z,-0.35
2023-01-18T09:41:56.072Z,-0.30
2023-01-18T09:44:33.424Z,-0.30
2023-01-18T09:47:11.332Z,-0.21
2023-01-18T09:49:53.925Z,-0.24
2023-01-18T09:52:32.375Z,-0.19
2023-01-18T09:55:28.907Z,-0.17
2023-01-18T09:58:19.205Z,-0.13
2023-01-18T10:00:48.727Z,-0.10
2023-01-18T10:03:21.114Z,-0.10
2023-01-18T10:06:08.338Z,-0.09
2023-01-18T10:08:53.850Z,-0.11
2023-01-18T10:11:33.194Z,-0.03
2023-01-18T10:14:41.507Z,0.01
2023-01-18T10:17:16.721Z,0.15
2023-01-18T10:19:43.867Z,0.15
2023-01-18T10:22:27.713Z,0.17
2023-01-18T10:25:02.619Z,0.18
2023-01-18T10:27:48.483Z,0.23
2023-01-18T10:30:29.897Z,0.34
2023-01-18T10:32:59.656Z,0.42
2023-01-18T10:35:32.985Z,0.53
2023-01-18T10:38:07.813Z,0.62
2023-01-18T10:40:36.459Z,0.66
2023-01-18T10:43:04.493Z,0.52
2023-01-18T10:45:36.364Z,0.51
2023-01-18T10:48:20.977Z,0.50
2023-01-18T10:50:53.272Z,0.58
2023-01-18T10:53:19.910Z,0.80
2023-01-18T10:56:17.152Z,1.40
2023-01-18T10:58:45.392Z,1.49
2023-01-18T11:01:37.373Z,1.34
2023-01-18T11:04:20.832Z,1.36
2023-01-18T11:07:04.981Z,1.09
2023-01-18T11:09:51.547Z,1.06
2023-01-18T11:12:40.523Z,1.03
2023-01-18T11:15:22.159Z,0.94
2023-01-18T11:17:58.395Z,1.14
2023-01-18T11:20:34.531Z,1.20
2023-01-18T11:23:12.322Z,1.29
2023-01-18T11:25:42.668Z,1.58
2023-01-18T11:28:46.379Z,1.68
2023-01-18T11:31:21.095Z,1.57
2023-01-18T11:33:49.183Z,1.33
2023-01-18T11:36:16.760Z,1.23
2023-01-18T11:38:43.277Z,1.08
2023-01-18T11:41:20.980Z,1.20
2023-01-18T11:44:01.068Z,1.15
2023-01-18T11:46:43.335Z,1.03
2023-01-18T11:49:15.623Z,1.03
2023-01-18T11:52:02.578Z,1.14
2023-01-18T11:54:39.479Z,1.11
2023-01-18T11:57:12.473Z,1.06
2023-01-18T11:59:46.257Z,0.98
2023-01-18T12:02:58.672Z,0.88
2023-01-18T12:05:27.146Z,0.95
2023-01-18T12:08:27.858Z,0.96
2023-01-18T12:11:06.269Z,0.99
2023-01-18T12:13:42.425Z,1.23
2023-01-18T12:16:35.420Z,1.43
2023-01-18T12:19:32.125Z,1.47
2023-01-18T12:22:17.482Z,1.48
2023-01-18T12:25:06.331Z,1.35
2023-01-18T12:28:11.179Z,1.46
2023-01-18T12:30:56.306Z,1.62
2023-01-18T12:33:54.614Z,1.77
2023-01-18T12:36:29.513Z,1.97
2023-01-18T12:38:56.967Z,2.02
2023-01-18T12:44:33.605Z,2.10
2023-01-18T12:47:34.958Z,2.09
2023-01-18T12:50:26.411Z,1.95
2023-01-18T12:52:58.434Z,1.91
2023-01-18T12:55:29.711Z,1.97
2023-01-18T12:57:59.905Z,1.86
2023-01-18T13:00:33.695Z,1.77
2023-01-18T13:03:04.336Z,1.59
2023-01-18T13:05:53.516Z,1.46
2023-01-18T13:08:44.453Z,1.43
2023-01-18T13:11:19.679Z,1.36
2023-01-18T13:13:51.762Z,1.20
2023-01-18T13:16:44.605Z,1.08
2023-01-18T13:19:17.206Z,1.00
2023-01-18T13:22:23.294Z,0.90
2023-01-18T13:25:08.976Z,0.85
2023-01-18T13:27:39.399Z,0.82
2023-01-18T13:30:16.924Z,0.90
2023-01-18T13:32:45.544Z,0.94
2023-01-18T13:35:36.139Z,0.93
2023-01-18T13:38:15.764Z,0.92
2023-01-18T13:40:52.580Z,0.77
2023-01-18T13:43:55.485Z,0.69
2023-01-18T13:46:25.306Z,0.72
2023-01-18T13:49:04.534Z,0.62
2023-01-18T13:51:36.761Z,0.57
2023-01-18T13:54:03.765Z,0.49
2023-01-18T13:56:31.753Z,0.45
2023-01-18T13:59:03.278Z,0.37
2023-01-18T14:01:37.667Z,0.38
2023-01-18T14:04:31.872Z,0.29
2023-01-18T14:07:02.166Z,0.31
2023-01-18T14:09:43.276Z,0.30
2023-01-18T14:12:13.255Z,0.28
2023-01-18T14:14:58.906Z,0.26
2023-01-18T14:17:26.271Z,0.23
2023-01-18T14:19:57.341Z,0.22
2023-01-18T14:22:30.451Z,0.20
2023-01-18T14:25:29.916Z,0.14
2023-01-18T14:28:02.754Z,0.10
2023-01-18T14:30:36.140Z,0.07
2023-01-18T14:33:30.616Z,0.07
2023-01-18T14:36:00.144Z,0.05
2023-01-18T14:38:27.242Z,0.05
2023-01-18T14:40:57.777Z,0.03
2023-01-18T14:43:36.383Z,0.02
2023-01-18T14:46:11.843Z,0.00
2023-01-18T14:48:53.663Z,-0.04
2023-01-18T14:51:23.394Z,-0.05
2023-01-18T14:53:59.166Z,-0.09
2023-01-18T14:56:29.530Z,-0.13
2023-01-18T14:59:03.187Z,-0.14
2023-01-18T15:01:44.355Z,-0.15
2023-01-18T15:04:25.252Z,-0.15
2023-01-18T15:06:57.206Z,-0.18
2023-01-18T15:09:28.071Z,-0.18
2023-01-18T15:12:03.730Z,-0.20
2023-01-18T15:14:34.093Z,-0.22
2023-01-18T15:17:02.408Z,-0.22
2023-01-18T15:19:54.084Z,-0.23
2023-01-18T15:22:27.252Z,-0.23
2023-01-18T15:24:57.644Z,-0.22
2023-01-18T15:27:24.179Z,-0.25
2023-01-18T15:29:56.379Z,-0.26
2023-01-18T15:32:34.748Z,-0.27
2023-01-18T15:35:02.988Z,-0.30
2023-01-18T15:37:42.081Z,-0.32
2023-01-18T15:40:18.009Z,-0.35
2023-01-18T15:42:52.251Z,-0.35
2023-01-18T15:45:33.929Z,-0.39
2023-01-18T15:48:06.358Z,-0.41
2023-01-18T15:50:43.537Z,-0.46
2023-01-18T15:53:21.182Z,-0.48
2023-01-18T15:55:49.414Z,-0.54
2023-01-18T15:58:40.511Z,-0.56
2023-01-18T16:01:13.328Z,-0.60
2023-01-18T16:03:52.311Z,-0.62
2023-01-18T16:06:32.373Z,-0.65
2023-01-18T16:09:12.184Z,-0.68
2023-01-18T16:11:43.081Z,-0.71
2023-01-18T16:14:30.533Z,-0.75
2023-01-18T16:17:21.101Z,-0.76
2023-01-18T16:19:55.659Z,-0.80
2023-01-18T16:22:28.446Z,-0.82
2023-01-18T16:25:03.130Z,-0.86
2023-01-18T16:27:32.553Z,-0.90
2023-01-18T16:30:02.357Z,-0.92
2023-01-18T16:32:35.975Z,-0.94
2023-01-18T16:35:15.641Z,-0.98
2023-01-18T16:37:44.756Z,-1.01
2023-01-18T16:40:17.971Z,-1.03
2023-01-18T16:42:56.664Z,-1.05
2023-01-18T16:45:26.060Z,-1.08
2023-01-18T16:47:52.523Z,-1.11
2023-01-18T16:50:23.738Z,-1.11
2023-01-18T16:52:50.353Z,-1.11
2023-01-18T16:55:18.124Z,-1.13
2023-01-18T16:57:47.399Z,-1.11
2023-01-18T17:00:19.724Z,-1.12
2023-01-18T17:02:55.339Z,-1.11
2023-01-18T17:05:24.093Z,-1.10
2023-01-18T17:07:52.649Z,-1.08
2023-01-18T17:10:30.598Z,-1.08
2023-01-18T17:12:58.901Z,-1.06
2023-01-18T17:15:28.298Z,-1.04
2023-01-18T17:18:04.660Z,-1.02
2023-01-18T17:20:32.612Z,-1.00
2023-01-18T17:23:01.117Z,-0.98
2023-01-18T17:25:27.976Z,-0.96
2023-01-18T17:27:56.766Z,-0.94
2023-01-18T17:30:23.659Z,-0.93
2023-01-18T17:32:53.544Z,-0.93
2023-01-18T17:35:24.231Z,-0.91
2023-01-18T17:38:00.647Z,-0.90
2023-01-18T17:40:39.612Z,-0.88
2023-01-18T17:43:07.772Z,-0.85
2023-01-18T17:45:34.516Z,-0.83
2023-01-18T17:48:00.990Z,-0.81
2023-01-18T17:50:27.605Z,-0.76
2023-01-18T17:52:54.646Z,-0.74
2023-01-18T17:55:27.366Z,-0.72
2023-01-18T17:58:01.105Z,-0.71
2023-01-18T18:00:27.733Z,-0.69
2023-01-18T18:02:56.967Z,-0.70
2023-01-18T18:05:24.064Z,-0.71
2023-01-18T18:07:53.191Z,-0.70
2023-01-18T18:10:20.084Z,-0.71
2023-01-18T18:12:48.522Z,-0.71
2023-01-18T18:15:15.221Z,-0.73
2023-01-18T18:17:41.754Z,-0.76
2023-01-18T18:20:15.081Z,-0.78
2023-01-18T18:22:41.641Z,-0.80
2023-01-18T18:25:08.766Z,-0.83
2023-01-18T18:27:45.150Z,-0.84
2023-01-18T18:30:13.721Z,-0.85
2023-01-18T18:32:48.727Z,-0.89
2023-01-18T18:35:25.031Z,-0.92
2023-01-18T18:37:57.239Z,-0.94
2023-01-18T18:40:27.983Z,-0.98
2023-01-18T18:43:02.449Z,-1.01
2023-01-18T18:45:33.023Z,-1.02
2023-01-18T18:48:00.592Z,-1.05
2023-01-18T18:50:27.935Z,-1.08
2023-01-18T18:52:59.615Z,-1.09
2023-01-18T18:55:26.386Z,-1.11
2023-01-18T18:57:52.897Z,-1.13
2023-01-18T19:00:21.560Z,-1.15
2023-01-18T19:02:48.221Z,-1.17
2023-01-18T19:05:19.468Z,-1.20
2023-01-18T19:07:47.451Z,-1.25
2023-01-18T19:10:14.789Z,-1.27
2023-01-18T19:12:41.351Z,-1.30
2023-01-18T19:15:10.294Z,-1.31
2023-01-18T19:17:37.579Z,-1.33
2023-01-18T19:20:05.258Z,-1.36
2023-01-18T19:22:33.616Z,-1.39
2023-01-18T19:25:00.337Z,-1.41
2023-01-18T19:27:27.307Z,-1.43
2023-01-18T19:29:56.964Z,-1.44
2023-01-18T19:32:24.703Z,-1.46
2023-01-18T19:34:51.189Z,-1.46
2023-01-18T19:37:17.743Z,-1.47
2023-01-18T19:39:44.271Z,-1.48
2023-01-18T19:42:10.772Z,-1.47
2023-01-18T19:44:49.426Z,-1.47
2023-01-18T19:47:21.024Z,-1.47
2023-01-18T19:49:47.744Z,-1.47
2023-01-18T19:52:14.460Z,-1.46
2023-01-18T19:54:40.922Z,-1.47
2023-01-18T19:57:07.741Z,-1.47
2023-01-18T19:59:34.459Z,-1.46
2023-01-18T20:02:05.889Z,-1.46
2023-01-18T20:04:33.887Z,-1.44
2023-01-18T20:07:00.800Z,-1.44
2023-01-18T20:09:38.485Z,-1.43
2023-01-18T20:12:11.491Z,-1.40
2023-01-18T20:14:45.086Z,-1.38
2023-01-18T20:17:14.626Z,-1.38
2023-01-18T20:19:41.812Z,-1.36
2023-01-18T20:22:08.548Z,-1.34
2023-01-18T20:24:35.206Z,-1.31
2023-01-18T20:27:14.876Z,-1.31
2023-01-18T20:29:44.496Z,-1.30
2023-01-18T20:32:18.737Z,-1.31
2023-01-18T20:34:47.411Z,-1.32
2023-01-18T20:37:16.541Z,-1.32
2023-01-18T20:39:43.262Z,-1.31
2023-01-18T20:42:10.024Z,-1.31
2023-01-18T20:44:36.721Z,-1.33
2023-01-18T20:47:04.055Z,-1.33
2023-01-18T20:49:37.556Z,-1.35
2023-01-18T20:52:05.926Z,-1.36
2023-01-18T20:54:34.685Z,-1.37
2023-01-18T20:57:02.287Z,-1.38
2023-01-18T20:59:28.770Z,-1.39
2023-01-18T21:01:55.505Z,-1.40
2023-01-18T21:04:22.059Z,-1.39
2023-01-18T21:06:49.897Z,-1.40
2023-01-18T21:09:21.174Z,-1.39
2023-01-18T21:11:47.681Z,-1.39
2023-01-18T21:14:14.202Z,-1.39
2023-01-18T21:16:41.021Z,-1.38
2023-01-18T21:19:07.952Z,-1.39
2023-01-18T21:21:34.659Z,-1.38
2023-01-18T21:24:07.525Z,-1.39
2023-01-18T21:26:34.252Z,-1.38
2023-01-18T21:29:00.941Z,-1.38
2023-01-18T21:31:29.578Z,-1.36
2023-01-18T21:33:56.380Z,-1.37
2023-01-18T21:36:23.278Z,-1.36
2023-01-18T21:38:52.699Z,-1.37
2023-01-18T21:41:38.270Z,-1.36
2023-01-18T21:44:24.194Z,-1.36
2023-01-18T21:46:52.240Z,-1.36
2023-01-18T21:52:43.997Z,-1.38
2023-01-18T21:55:10.649Z,-1.39
2023-01-18T21:57:38.693Z,-1.40
2023-01-18T22:00:06.263Z,-1.41
2023-01-18T22:02:35.293Z,-1.42
2023-01-18T22:05:04.610Z,-1.45
2023-01-18T22:07:34.211Z,-1.46
2023-01-18T22:10:06.074Z,-1.48
2023-01-18T22:12:35.602Z,-1.51
2023-01-18T22:15:04.503Z,-1.52
2023-01-18T22:17:31.094Z,-1.51
2023-01-18T22:19:57.607Z,-1.51
2023-01-18T22:22:30.600Z,-1.53
2023-01-18T22:25:00.052Z,-1.53
2023-01-18T22:27:26.569Z,-1.54
2023-01-18T22:29:53.335Z,-1.54
2023-01-18T22:32:21.779Z,-1.53
2023-01-18T22:34:48.289Z,-1.52
2023-01-18T22:37:15.014Z,-1.54
2023-01-18T22:39:41.491Z,-1.57
2023-01-18T22:42:08.382Z,-1.58
2023-01-18T22:44:34.998Z,-1.63
2023-01-18T22:47:01.539Z,-1.68
2023-01-18T22:49:28.110Z,-1.73
2023-01-18T22:51:56.381Z,-1.78
2023-01-18T22:54:28.337Z,-1.83
2023-01-18T22:56:54.916Z,-1.86
2023-01-18T22:59:23.198Z,-1.86
2023-01-18T23:01:49.724Z,-1.88
2023-01-18T23:04:16.402Z,-1.87
2023-01-18T23:06:45.909Z,-1.88
2023-01-18T23:09:17.505Z,-1.90
2023-01-18T23:11:45.128Z,-1.92
2023-01-18T23:14:32.218Z,-1.94
2023-01-18T23:17:17.657Z,-1.96
2023-01-18T23:19:44.209Z,-2.00
2023-01-18T23:22:11.291Z,-2.00
2023-01-18T23:24:38.596Z,-2.05
2023-01-18T23:27:07.448Z,-2.11
2023-01-18T23:29:35.872Z,-2.14
2023-01-18T23:32:02.568Z,-2.23
2023-01-18T23:34:30.884Z,-2.37
2023-01-18T23:36:57.411Z,-2.47
2023-01-18T23:39:44.126Z,-2.55
2023-01-18T23:42:29.480Z,-2.63
2023-01-18T23:45:16.430Z,-2.71
2023-01-18T23:48:01.791Z,-2.82
2023-01-18T23:50:49.486Z,-2.87
2023-01-18T23:53:34.355Z,-2.95
2023-01-18T23:56:07.253Z,-3.01
2023-01-18T23:58:33.804Z,-3.05
